Southlake, Texas
Current Conditions -  °F | °C
As of 3:53 PM on Saturday 25 Oct 2014 (Local Time) from KDFW Reporting Station
Clear Clear  
Wind Chill: 88°   Ceiling: Unl
Heat Index: 88°   Visibility: 10mi
Dew Point: 59°   Wind: 7mph
Humidity: 37%   Direction: 190°S
Pressure: 30.06"   Gusts: NA
Location:  32.95°N, 97.13°W
Report Text: KDFW 252053Z 19006KT 10SM CLR 31/15 A3006 RMK AO2 SLP171 T03110150 56019
Loading
Personal Weather Stations






























Interactive Weather Map
Tropical Storm Tracking
New forecast layout! Learn more

10-Day Weather Forecast

Advertisements
Track Severe Weather on mobile